Time;durP1;ratioP1;P1;durP2;ratioP2;P2;SDS_P1;SDS_P2;PMS_P1;PMS_P2;Temp;Humidity;BMP_temperature;BMP_pressure;BME280_temperature;BME280_humidity;BME280_pressure;Samples;Min_cycle;Max_cycle;Signal;HPM_P1;HPM_P2
2022/10/29 00:00:58;;;;;;;6.27;4.20;;;18.00;81.00;;;-142.21;100.00;112049.66;4998229;28;20443;-71
2022/10/29 00:03:29;;;;;;;6.17;4.17;;;17.90;81.00;;;-142.21;100.00;112049.66;5005937;28;20464;-71
2022/10/29 00:06:00;;;;;;;7.80;4.73;;;17.90;81.00;;;-142.21;100.00;112049.66;4997187;28;20443;-71
2022/10/29 00:08:29;;;;;;;6.50;4.37;;;17.90;81.50;;;-142.21;100.00;112049.66;5006711;28;20486;-71
2022/10/29 00:11:05;;;;;;;6.07;4.23;;;17.90;80.90;;;-142.21;100.00;112049.66;5011897;28;20537;-72
2022/10/29 00:13:34;;;;;;;8.10;4.37;;;17.90;80.90;;;-142.21;100.00;112049.66;4999528;28;20447;-71
2022/10/29 00:16:05;;;;;;;10.57;4.73;;;17.90;80.90;;;-142.21;100.00;112049.66;5002370;28;20246;-71
2022/10/29 00:18:32;;;;;;;7.87;4.20;;;17.90;80.90;;;-142.21;100.00;112049.66;5012804;28;20434;-71
2022/10/29 00:21:05;;;;;;;7.87;4.20;;;17.90;80.90;;;-142.21;100.00;112049.66;4994876;28;20461;-71
2022/10/29 00:23:33;;;;;;;7.57;3.80;;;17.90;80.80;;;-142.21;100.00;112049.66;5007746;28;20451;-72
2022/10/29 00:26:02;;;;;;;6.73;4.57;;;17.90;80.40;;;-142.21;100.00;112049.66;4995131;28;20446;-72
2022/10/29 00:28:30;;;;;;;9.60;4.37;;;17.90;80.30;;;-142.21;100.00;112049.66;4996283;28;20537;-71
2022/10/29 00:31:03;;;;;;;8.57;4.10;;;17.90;80.30;;;-142.21;100.00;112049.66;5008129;28;20531;-72
2022/10/29 00:33:30;;;;;;;7.83;4.73;;;17.80;80.60;;;-142.21;100.00;112049.66;5010900;28;20534;-72
2022/10/29 00:35:59;;;;;;;11.53;4.33;;;17.80;80.50;;;-142.21;100.00;112049.66;4998286;28;20541;-72
2022/10/29 00:38:27;;;;;;;9.27;4.33;;;17.80;80.30;;;-142.21;100.00;112049.66;4980973;28;20443;-72
2022/10/29 00:40:55;;;;;;;6.70;4.27;;;17.80;80.60;;;-142.21;100.00;112049.66;5012081;28;20450;-71
2022/10/29 00:43:25;;;;;;;9.77;4.60;;;17.70;80.80;;;-142.21;100.00;112049.66;4996698;28;20455;-72
2022/10/29 00:45:59;;;;;;;10.43;5.03;;;17.70;81.30;;;-142.21;100.00;112049.66;4996225;28;20440;-72
2022/10/29 00:48:31;;;;;;;8.00;4.57;;;17.70;81.70;;;-142.21;100.00;112049.66;5013286;28;20441;-71
2022/10/29 00:51:02;;;;;;;8.87;4.90;;;17.70;80.80;;;-142.21;100.00;112049.66;5007448;28;20454;-71
2022/10/29 00:53:34;;;;;;;5.70;4.83;;;17.70;81.40;;;-142.21;100.00;112049.66;4947099;28;20453;-72
2022/10/29 00:56:02;;;;;;;9.73;4.53;;;17.70;80.70;;;-142.21;100.00;112049.66;4999949;28;20991;-71
2022/10/29 00:58:30;;;;;;;10.50;5.20;;;17.70;80.80;;;-142.21;100.00;112049.66;5005697;28;20813;-72
2022/10/29 01:00:59;;;;;;;12.00;4.90;;;17.60;80.60;;;-142.21;100.00;112049.66;5003356;28;20452;-72
2022/10/29 01:03:26;;;;;;;9.80;4.50;;;17.60;80.60;;;-142.21;100.00;112049.66;5007908;28;20784;-72
2022/10/29 01:05:54;;;;;;;8.00;4.10;;;17.60;80.40;;;-142.21;100.00;112049.66;4994712;28;20443;-72
2022/10/29 01:08:23;;;;;;;10.20;5.10;;;17.60;80.40;;;-142.21;100.00;112049.66;4997085;28;20503;-71
2022/10/29 01:11:03;;;;;;;7.93;4.70;;;17.60;80.50;;;-142.21;100.00;112049.66;5010273;28;20450;-71
2022/10/29 01:14:00;;;;;;;8.50;4.90;;;17.60;80.50;;;-142.21;100.00;112049.66;5003169;28;20522;-72
2022/10/29 01:16:45;;;;;;;9.77;5.13;;;17.50;80.50;;;-142.21;100.00;112049.66;4996468;28;20558;-72
2022/10/29 01:19:24;;;;;;;13.27;4.97;;;17.50;80.50;;;-142.21;100.00;112049.66;5005356;28;20480;-72
2022/10/29 01:21:56;;;;;;;11.97;4.90;;;17.50;80.50;;;-142.21;100.00;112049.66;5023850;28;20513;-72
2022/10/29 01:25:11;;;;;;;7.40;4.50;;;17.60;80.20;;;-142.21;100.00;112049.66;5008668;28;20526;-71
2022/10/29 01:28:06;;;;;;;10.03;4.90;;;17.60;80.10;;;-142.21;100.00;112049.66;5017607;28;20439;-72
2022/10/29 01:31:18;;;;;;;7.77;4.30;;;17.60;80.10;;;-142.21;100.00;112049.66;5031468;28;20450;-73
2022/10/29 01:33:56;;;;;;;8.83;4.40;;;17.60;80.40;;;-142.21;100.00;112049.66;5001435;28;20825;-72
2022/10/29 01:36:37;;;;;;;5.80;4.27;;;17.60;80.30;;;-142.21;100.00;112049.66;5012317;28;20560;-72
2022/10/29 01:39:12;;;;;;;8.63;4.83;;;17.70;80.00;;;-142.21;100.00;112049.66;4961608;28;20443;-71
2022/10/29 01:41:53;;;;;;;11.20;4.90;;;17.60;80.00;;;-142.21;100.00;112049.66;4996375;28;20434;-71
2022/10/29 01:44:34;;;;;;;7.93;4.13;;;17.60;80.20;;;-142.21;100.00;112049.66;5003947;28;20446;-72
2022/10/29 01:47:05;;;;;;;11.20;5.10;;;17.60;80.10;;;-142.21;100.00;112049.66;4998561;28;20486;-72
2022/10/29 01:49:38;;;;;;;8.70;4.43;;;17.60;79.90;;;-142.21;100.00;112049.66;4995553;28;20457;-72
2022/10/29 01:52:11;;;;;;;6.83;4.60;;;17.50;79.80;;;-142.21;100.00;112049.66;5007794;28;20437;-71
2022/10/29 01:54:41;;;;;;;9.90;4.50;;;17.50;79.70;;;-142.21;100.00;112049.66;4998036;28;20442;-74
2022/10/29 01:57:29;;;;;;;9.27;4.90;;;17.50;79.80;;;-142.21;100.00;112049.66;5007089;28;20828;-71
2022/10/29 02:00:02;;;;;;;9.73;4.57;;;17.50;80.00;;;-142.21;100.00;112049.66;4994776;28;20453;-72
2022/10/29 02:03:01;;;;;;;9.63;4.50;;;17.50;79.80;;;-142.21;100.00;112049.66;5009831;28;20802;-72
2022/10/29 02:05:36;;;;;;;9.93;4.83;;;17.50;80.00;;;-142.21;100.00;112049.66;5001907;28;20442;-72
2022/10/29 02:08:20;;;;;;;11.20;5.10;;;17.40;79.70;;;-142.21;100.00;112049.66;5004547;28;20444;-72
2022/10/29 02:10:58;;;;;;;8.40;4.03;;;17.40;80.10;;;-142.21;100.00;112049.66;5006204;28;20929;-72
2022/10/29 02:13:33;;;;;;;8.03;4.70;;;17.30;80.10;;;-142.21;100.00;112049.66;5002485;28;20453;-71
2022/10/29 02:16:06;;;;;;;8.27;5.17;;;17.30;79.80;;;-142.21;100.00;112049.66;5011123;28;20838;-71
2022/10/29 02:18:42;;;;;;;12.37;4.23;;;17.30;79.80;;;-142.21;100.00;112049.66;4978611;28;20457;-71
2022/10/29 02:21:16;;;;;;;6.83;4.10;;;17.30;79.90;;;-142.21;100.00;112049.66;5000482;28;20462;-72
2022/10/29 02:23:43;;;;;;;10.50;4.70;;;17.30;80.00;;;-142.21;100.00;112049.66;5000182;28;20509;-71
2022/10/29 02:26:11;;;;;;;7.83;4.17;;;17.30;79.90;;;-142.21;100.00;112049.66;5001843;28;20951;-72
2022/10/29 02:28:39;;;;;;;9.70;4.50;;;17.20;79.70;;;-142.21;100.00;112049.66;5008231;28;20226;-72
2022/10/29 02:31:06;;;;;;;8.73;4.63;;;17.20;79.70;;;-142.21;100.00;112049.66;5012787;28;20777;-72
2022/10/29 02:33:35;;;;;;;10.00;4.57;;;17.20;79.80;;;-142.21;100.00;112049.66;4999148;28;20950;-71
2022/10/29 02:36:05;;;;;;;8.43;3.83;;;17.10;79.80;;;-142.21;100.00;112049.66;4993760;28;20495;-71
2022/10/29 02:38:32;;;;;;;7.23;4.83;;;17.10;79.90;;;-142.21;100.00;112049.66;4998387;28;20482;-72
2022/10/29 02:40:59;;;;;;;8.23;4.10;;;17.10;80.00;;;-142.21;100.00;112049.66;5002508;28;20451;-71
2022/10/29 02:43:26;;;;;;;7.50;4.10;;;17.00;79.90;;;-142.21;100.00;112049.66;5005165;28;20446;-71
2022/10/29 02:46:13;;;;;;;7.67;4.87;;;17.00;80.00;;;-142.21;100.00;112049.66;4995823;28;20454;-72
2022/10/29 02:48:41;;;;;;;7.37;4.37;;;17.00;80.00;;;-142.21;100.00;112049.66;5002326;28;20470;-71
2022/10/29 02:51:10;;;;;;;4.43;3.80;;;17.00;79.90;;;-142.21;100.00;112049.66;4993599;28;20566;-72
2022/10/29 02:53:37;;;;;;;10.90;4.70;;;17.00;79.90;;;-142.21;100.00;112049.66;5009990;28;20446;-72
2022/10/29 02:56:06;;;;;;;5.60;3.70;;;17.00;79.90;;;-142.21;100.00;112049.66;5009588;28;20486;-71
2022/10/29 02:58:33;;;;;;;8.53;3.80;;;17.00;79.90;;;-142.21;100.00;112049.66;5007204;28;20449;-72
2022/10/29 03:01:01;;;;;;;9.17;5.00;;;17.00;80.00;;;-142.21;100.00;112049.66;4992353;28;20435;-72
2022/10/29 03:03:29;;;;;;;8.50;4.20;;;16.90;79.90;;;-142.21;100.00;112049.66;5014452;28;20540;-72
2022/10/29 03:05:56;;;;;;;8.47;5.00;;;16.90;79.90;;;-142.21;100.00;112049.66;5029801;28;20441;-72
2022/10/29 03:08:24;;;;;;;7.33;4.10;;;16.90;79.80;;;-142.21;100.00;112049.66;5031713;28;20485;-71
2022/10/29 03:10:51;;;;;;;6.23;3.93;;;16.90;79.80;;;-142.21;100.00;112049.66;5031184;28;20527;-71
2022/10/29 03:13:21;;;;;;;7.00;3.90;;;16.90;79.80;;;-142.21;100.00;112049.66;5031974;28;20451;-71
2022/10/29 03:15:48;;;;;;;5.67;3.80;;;16.80;80.10;;;-142.21;100.00;112049.66;5018806;28;20481;-71
2022/10/29 03:18:15;;;;;;;6.57;3.77;;;16.80;81.00;;;-142.21;100.00;112049.66;4996590;28;20453;-71
2022/10/29 03:20:44;;;;;;;7.33;3.90;;;16.80;80.40;;;-142.21;100.00;112049.66;4991954;28;20462;-71
2022/10/29 03:23:11;;;;;;;4.87;3.87;;;16.80;80.50;;;-142.21;100.00;112049.66;4992411;28;20455;-71
2022/10/29 03:25:39;;;;;;;7.63;4.17;;;16.80;80.50;;;-142.21;100.00;112049.66;4992085;28;20453;-72
2022/10/29 03:28:06;;;;;;;6.97;3.80;;;16.80;80.50;;;-142.21;100.00;112049.66;4999235;28;20452;-72
2022/10/29 03:30:33;;;;;;;6.13;3.50;;;16.70;80.40;;;-142.21;100.00;112049.66;5010497;28;20453;-71
2022/10/29 03:33:00;;;;;;;6.93;3.90;;;16.70;80.50;;;-142.21;100.00;112049.66;5001174;28;20446;-71
2022/10/29 03:35:28;;;;;;;6.97;3.90;;;16.70;80.60;;;-142.21;100.00;112049.66;5012269;28;20453;-72
2022/10/29 03:37:55;;;;;;;6.53;4.20;;;16.70;80.60;;;-142.21;100.00;112049.66;4995677;28;20904;-72
2022/10/29 03:40:22;;;;;;;7.20;4.33;;;16.70;80.70;;;-142.21;100.00;112049.66;4992101;28;20469;-72
2022/10/29 03:42:50;;;;;;;9.87;4.77;;;16.70;80.70;;;-142.21;100.00;112049.66;4995250;28;20454;-71
2022/10/29 03:45:18;;;;;;;5.40;3.83;;;16.70;80.80;;;-142.21;100.00;112049.66;4992417;28;20450;-69
2022/10/29 03:47:45;;;;;;;9.37;4.20;;;16.70;80.60;;;-142.21;100.00;112049.66;4993253;28;20534;-71
2022/10/29 03:50:12;;;;;;;7.67;3.83;;;16.70;80.70;;;-142.21;100.00;112049.66;4992599;28;20454;-72
2022/10/29 03:52:39;;;;;;;8.70;4.13;;;16.70;80.60;;;-142.21;100.00;112049.66;4993232;28;20545;-72
2022/10/29 03:55:07;;;;;;;9.83;4.60;;;16.70;80.70;;;-142.21;100.00;112049.66;4992442;28;20448;-72
2022/10/29 03:57:37;;;;;;;7.77;4.20;;;16.60;80.70;;;-142.21;100.00;112049.66;5010073;28;20485;-72
2022/10/29 04:00:07;;;;;;;7.13;4.10;;;16.60;81.50;;;-142.21;100.00;112049.66;4998191;28;20460;-72
2022/10/29 04:02:34;;;;;;;6.97;3.80;;;16.60;80.70;;;-142.21;100.00;112049.66;4999539;28;20554;-72
2022/10/29 04:05:01;;;;;;;7.80;3.70;;;16.60;80.50;;;-142.21;100.00;112049.66;5013433;28;20460;-72
2022/10/29 04:07:28;;;;;;;7.20;3.67;;;16.60;80.50;;;-142.21;100.00;112049.66;5004473;28;20534;-72
2022/10/29 04:09:56;;;;;;;7.17;3.70;;;16.60;80.40;;;-142.21;100.00;112049.66;5013475;28;20807;-72
2022/10/29 04:12:23;;;;;;;5.83;3.47;;;16.60;80.40;;;-142.21;100.00;112049.66;5004370;28;20455;-72
2022/10/29 04:14:52;;;;;;;7.50;3.90;;;16.60;80.40;;;-142.21;100.00;112049.66;5012236;28;20965;-72
2022/10/29 04:17:21;;;;;;;5.37;3.73;;;16.60;80.30;;;-142.21;100.00;112049.66;5010089;28;20496;-72
2022/10/29 04:19:48;;;;;;;9.37;4.30;;;16.50;80.30;;;-142.21;100.00;112049.66;5014182;28;20454;-72
2022/10/29 04:22:15;;;;;;;5.83;3.50;;;16.50;80.50;;;-142.21;100.00;112049.66;5011168;28;20456;-72
2022/10/29 04:24:43;;;;;;;6.03;4.43;;;16.50;80.40;;;-142.21;100.00;112049.66;4996695;28;20484;-71
2022/10/29 04:27:10;;;;;;;10.83;4.23;;;16.50;80.50;;;-142.21;100.00;112049.66;5010408;28;20495;-72
2022/10/29 04:29:37;;;;;;;10.03;4.77;;;16.50;80.50;;;-142.21;100.00;112049.66;5002031;28;20469;-72
2022/10/29 04:32:04;;;;;;;6.33;3.90;;;16.40;80.10;;;-142.21;100.00;112049.66;5013419;28;20460;-72
2022/10/29 04:34:33;;;;;;;7.87;4.07;;;16.40;80.00;;;-142.21;100.00;112049.66;5005446;28;20447;-72
2022/10/29 04:37:00;;;;;;;4.83;3.70;;;16.40;80.70;;;-142.21;100.00;112049.66;5001900;28;20481;-71
2022/10/29 04:39:27;;;;;;;6.33;4.10;;;16.40;80.10;;;-142.21;100.00;112049.66;5002424;28;20451;-71
2022/10/29 04:41:54;;;;;;;5.30;3.60;;;16.40;80.00;;;-142.21;100.00;112049.66;5001460;28;20456;-71
2022/10/29 04:44:21;;;;;;;8.13;4.00;;;16.30;80.00;;;-142.21;100.00;112049.66;4994540;28;20791;-72
2022/10/29 04:46:48;;;;;;;6.27;3.70;;;16.30;79.80;;;-142.21;100.00;112049.66;4996490;28;20455;-72
2022/10/29 04:49:15;;;;;;;7.47;3.80;;;16.30;79.70;;;-142.21;100.00;112049.66;5010937;28;20447;-71
2022/10/29 04:51:44;;;;;;;6.20;3.77;;;16.30;79.80;;;-142.21;100.00;112049.66;4994657;28;20446;-71
2022/10/29 04:54:11;;;;;;;8.07;3.80;;;16.30;79.70;;;-142.21;100.00;112049.66;5000851;28;20537;-71
2022/10/29 04:56:38;;;;;;;6.63;3.53;;;16.30;79.50;;;-142.21;100.00;112049.66;5010595;28;20489;-72
2022/10/29 04:59:05;;;;;;;4.77;3.77;;;16.30;79.70;;;-142.21;100.00;112049.66;5003986;28;20450;-72
2022/10/29 05:01:32;;;;;;;7.40;3.23;;;16.30;79.80;;;-142.21;100.00;112049.66;5007927;28;20815;-72
2022/10/29 05:03:59;;;;;;;6.30;3.60;;;16.30;79.80;;;-142.21;100.00;112049.66;5002038;28;20442;-71
2022/10/29 05:06:26;;;;;;;6.87;3.70;;;16.20;79.70;;;-142.21;100.00;112049.66;5008913;28;20480;-72
2022/10/29 05:08:55;;;;;;;6.80;3.57;;;16.20;79.70;;;-142.21;100.00;112049.66;5001221;28;20481;-72
2022/10/29 05:11:22;;;;;;;8.73;4.10;;;16.20;79.70;;;-142.21;100.00;112049.66;5026690;28;20517;-72
2022/10/29 05:13:49;;;;;;;4.27;3.13;;;16.20;79.90;;;-142.21;100.00;112049.66;5014082;28;20466;-74
2022/10/29 05:16:16;;;;;;;7.00;3.73;;;16.10;79.70;;;-142.21;100.00;112049.66;5000724;28;20450;-72
2022/10/29 05:18:43;;;;;;;6.87;3.67;;;16.10;79.80;;;-142.21;100.00;112049.66;5019783;28;20509;-72
2022/10/29 05:21:10;;;;;;;6.37;3.40;;;16.10;80.00;;;-142.21;100.00;112049.66;5034230;28;20514;-71
2022/10/29 05:23:37;;;;;;;5.47;3.40;;;16.00;80.40;;;-142.21;100.00;112049.66;5031295;28;20537;-72
2022/10/29 05:26:06;;;;;;;4.50;4.03;;;16.10;80.30;;;-142.21;100.00;112049.66;4994832;28;20453;-72
2022/10/29 05:28:33;;;;;;;11.07;3.60;;;16.10;79.70;;;-142.21;100.00;112049.66;4994144;28;20526;-72
2022/10/29 05:31:02;;;;;;;5.90;3.53;;;16.10;79.60;;;-142.21;100.00;112049.66;4993917;28;20469;-71
2022/10/29 05:33:29;;;;;;;4.90;3.50;;;16.00;79.70;;;-142.21;100.00;112049.66;4997768;28;20451;-71
2022/10/29 05:35:58;;;;;;;7.23;3.83;;;16.00;79.40;;;-142.21;100.00;112049.66;4993860;28;20546;-73
2022/10/29 05:38:25;;;;;;;5.07;3.50;;;16.00;79.40;;;-142.21;100.00;112049.66;5011188;28;20504;-71
2022/10/29 05:40:52;;;;;;;8.73;3.90;;;16.00;79.30;;;-142.21;100.00;112049.66;5011648;28;20456;-72
2022/10/29 05:43:21;;;;;;;6.23;3.93;;;16.00;79.30;;;-142.21;100.00;112049.66;4996241;28;20466;-72
2022/10/29 05:45:48;;;;;;;6.90;3.77;;;16.00;79.40;;;-142.21;100.00;112049.66;4994981;28;20455;-71
2022/10/29 05:48:15;;;;;;;11.23;4.10;;;15.90;79.40;;;-142.21;100.00;112049.66;5005862;28;20450;-71
2022/10/29 05:50:42;;;;;;;7.77;4.13;;;15.90;79.50;;;-142.21;100.00;112049.66;4993004;28;20468;-72
2022/10/29 05:53:13;;;;;;;6.70;4.03;;;15.90;79.40;;;-142.21;100.00;112049.66;4999785;28;20451;-72
2022/10/29 05:55:41;;;;;;;6.00;3.73;;;15.90;79.40;;;-142.21;100.00;112049.66;5012602;28;20449;-72
2022/10/29 05:58:12;;;;;;;8.23;3.90;;;15.90;79.40;;;-142.21;100.00;112049.66;5010423;28;20490;-72
2022/10/29 06:00:43;;;;;;;8.07;3.60;;;15.90;79.40;;;-142.21;100.00;112049.66;5009780;28;20522;-72
2022/10/29 06:03:15;;;;;;;5.07;3.53;;;15.80;79.40;;;-142.21;100.00;112049.66;4993728;28;20518;-71
2022/10/29 06:05:42;;;;;;;6.60;3.47;;;15.80;79.60;;;-142.21;100.00;112049.66;5002277;28;20783;-72
2022/10/29 06:08:09;;;;;;;4.37;3.70;;;15.80;79.40;;;-142.21;100.00;112049.66;5004007;28;20536;-72
2022/10/29 06:10:36;;;;;;;6.37;3.30;;;15.80;79.30;;;-142.21;100.00;112049.66;5013062;28;20485;-72
2022/10/29 06:13:11;;;;;;;6.13;3.17;;;15.70;79.30;;;-142.21;100.00;112049.66;5011034;28;20473;-72
2022/10/29 06:15:38;;;;;;;7.53;3.03;;;15.70;79.40;;;-142.21;100.00;112049.66;5013230;28;20418;-71
2022/10/29 06:18:06;;;;;;;8.07;3.53;;;15.70;79.60;;;-142.21;100.00;112049.66;5007026;28;20478;-71
2022/10/29 06:20:33;;;;;;;5.00;3.40;;;15.70;79.70;;;-142.21;100.00;112049.66;5011936;28;20454;-71
2022/10/29 06:23:01;;;;;;;5.43;3.43;;;15.70;79.70;;;-142.21;100.00;112049.66;5012550;28;20442;-71
2022/10/29 06:25:28;;;;;;;5.77;3.00;;;15.70;79.60;;;-142.21;100.00;112049.66;5006536;28;20501;-75
2022/10/29 06:28:01;;;;;;;7.40;3.37;;;15.70;79.70;;;-142.21;100.00;112049.66;5003131;28;20453;-72
2022/10/29 06:30:30;;;;;;;6.93;3.57;;;15.60;79.80;;;-142.21;100.00;112049.66;5013932;28;20855;-72
2022/10/29 06:32:57;;;;;;;5.10;3.70;;;15.70;80.10;;;-142.21;100.00;112049.66;5001351;28;20486;-72
2022/10/29 06:35:26;;;;;;;11.30;4.27;;;15.60;80.40;;;-142.21;100.00;112049.66;5003953;28;20459;-72
2022/10/29 06:37:53;;;;;;;6.70;4.00;;;15.60;80.90;;;-142.21;100.00;112049.66;5001266;28;20502;-72
2022/10/29 06:40:21;;;;;;;11.50;4.17;;;15.50;81.20;;;-142.21;100.00;112049.66;5013012;28;20541;-71
2022/10/29 06:42:48;;;;;;;12.97;4.53;;;15.60;81.40;;;-142.21;100.00;112049.66;4986497;28;20439;-72
2022/10/29 06:45:16;;;;;;;9.17;4.00;;;15.60;81.20;;;-142.21;100.00;112049.66;5000528;28;20456;-72
2022/10/29 06:47:45;;;;;;;6.13;3.67;;;15.70;81.10;;;-142.21;100.00;112049.66;5006963;28;20902;-72
2022/10/29 06:50:13;;;;;;;9.00;3.70;;;15.70;80.90;;;-142.21;100.00;112049.66;5010599;28;20460;-72
2022/10/29 06:52:42;;;;;;;8.43;3.93;;;15.70;80.50;;;-142.21;100.00;112049.66;5001955;28;20455;-71
2022/10/29 06:55:10;;;;;;;7.53;4.13;;;15.80;80.70;;;-142.21;100.00;112049.66;4995644;28;20459;-72
2022/10/29 06:57:37;;;;;;;6.97;4.57;;;15.80;80.70;;;-142.21;100.00;112049.66;4995142;28;20487;-72
2022/10/29 07:00:06;;;;;;;6.30;4.37;;;15.90;80.80;;;-142.21;100.00;112049.66;4992390;28;20451;-72
2022/10/29 07:02:33;;;;;;;9.20;4.10;;;15.90;81.00;;;-142.21;100.00;112049.66;5002393;28;21047;-72
2022/10/29 07:05:01;;;;;;;7.53;4.10;;;15.90;81.10;;;-142.21;100.00;112049.66;4995318;28;20454;-72
2022/10/29 07:07:28;;;;;;;8.63;4.00;;;15.90;81.40;;;-142.21;100.00;112049.66;4996237;28;20540;-71
2022/10/29 07:09:58;;;;;;;7.93;4.07;;;16.00;81.60;;;-142.21;100.00;112049.66;5011174;28;20536;-72
2022/10/29 07:12:25;;;;;;;8.10;3.70;;;16.10;81.70;;;-142.21;100.00;112049.66;5000474;28;20443;-71
2022/10/29 07:14:52;;;;;;;7.13;3.97;;;16.10;81.80;;;-142.21;100.00;112049.66;4992438;28;20482;-72
2022/10/29 07:17:19;;;;;;;9.13;4.70;;;16.20;81.80;;;-142.21;100.00;112049.66;4995553;28;20546;-70
2022/10/29 07:19:46;;;;;;;8.63;4.10;;;16.30;82.10;;;-142.21;100.00;112049.66;5012375;28;20461;-70
2022/10/29 07:22:13;;;;;;;7.80;4.20;;;16.30;82.10;;;-142.21;100.00;112049.66;5000116;28;20859;-72
2022/10/29 07:24:40;;;;;;;9.03;4.73;;;16.40;82.00;;;-142.21;100.00;112049.66;4996788;28;20479;-72
2022/10/29 07:27:09;;;;;;;6.13;4.27;;;16.50;82.30;;;-142.21;100.00;112049.66;5000012;28;20450;-71
2022/10/29 07:29:36;;;;;;;12.47;4.90;;;16.60;82.60;;;-142.21;100.00;112049.66;4998608;28;20951;-71
2022/10/29 07:32:04;;;;;;;8.67;4.20;;;16.60;82.40;;;-142.21;100.00;112049.66;5006197;28;20545;-71
2022/10/29 07:34:31;;;;;;;5.87;3.73;;;16.70;82.30;;;-142.21;100.00;112049.66;5015488;28;20982;-72
2022/10/29 07:36:58;;;;;;;7.40;3.70;;;16.80;82.20;;;-142.21;100.00;112049.66;5001087;28;20455;-72
2022/10/29 07:39:25;;;;;;;5.97;3.93;;;16.80;82.30;;;-142.21;100.00;112049.66;5011934;28;20553;-72
2022/10/29 07:41:52;;;;;;;6.70;4.03;;;16.90;82.30;;;-142.21;100.00;112049.66;5003838;28;20787;-71
2022/10/29 07:44:21;;;;;;;6.80;3.73;;;16.90;82.60;;;-142.21;100.00;112049.66;5014206;28;20540;-72
2022/10/29 07:46:48;;;;;;;9.80;4.07;;;17.00;82.70;;;-142.21;100.00;112049.66;5010044;28;20458;-71
2022/10/29 07:49:16;;;;;;;5.70;4.37;;;17.00;83.10;;;-142.21;100.00;112049.66;5014666;28;20442;-70
2022/10/29 07:51:43;;;;;;;5.27;3.73;;;17.10;82.70;;;-142.21;100.00;112049.66;5004820;28;20447;-71
2022/10/29 07:54:11;;;;;;;7.07;4.00;;;17.20;82.50;;;-142.21;100.00;112049.66;5001732;28;20964;-71
2022/10/29 07:56:38;;;;;;;10.00;4.47;;;17.20;82.60;;;-142.21;100.00;112049.66;5013442;28;20449;-70
2022/10/29 07:59:08;;;;;;;12.07;4.63;;;17.30;82.90;;;-142.21;100.00;112049.66;5014390;28;20486;-71
2022/10/29 08:01:36;;;;;;;8.57;4.50;;;17.40;82.90;;;-142.21;100.00;112049.66;5013048;28;20559;-71
2022/10/29 08:04:04;;;;;;;6.57;4.30;;;17.60;82.80;;;-142.21;100.00;112049.66;5014419;28;20484;-71
2022/10/29 08:06:34;;;;;;;10.07;5.00;;;17.70;82.70;;;-142.21;100.00;112049.66;5012375;28;20455;-71
2022/10/29 08:09:02;;;;;;;8.83;4.40;;;17.90;82.60;;;-142.21;100.00;112049.66;5002743;28;20474;-71
2022/10/29 08:11:31;;;;;;;6.60;3.70;;;18.00;82.30;;;-142.21;100.00;112049.66;5014091;28;20504;-71
2022/10/29 08:13:58;;;;;;;8.27;3.90;;;18.20;82.20;;;-142.21;100.00;112049.66;5001342;28;20509;-70
2022/10/29 08:16:26;;;;;;;8.50;4.63;;;18.20;82.20;;;-142.21;100.00;112049.66;5013288;28;20537;-72
2022/10/29 08:18:54;;;;;;;11.40;4.40;;;18.30;82.00;;;-142.21;100.00;112049.66;4996450;28;20486;-70
2022/10/29 08:21:21;;;;;;;10.17;4.50;;;18.40;81.50;;;-142.21;100.00;112049.66;4996835;28;20996;-70
2022/10/29 08:23:49;;;;;;;6.97;4.10;;;18.50;81.90;;;-142.21;100.00;112049.66;4995419;28;20454;-70
2022/10/29 08:26:16;;;;;;;7.23;4.30;;;18.60;81.90;;;-142.21;100.00;112049.66;5006267;28;20524;-70
2022/10/29 08:28:43;;;;;;;8.47;4.20;;;18.80;81.90;;;-142.21;100.00;112049.66;5002138;28;20648;-70
2022/10/29 08:31:10;;;;;;;9.60;4.63;;;18.90;81.90;;;-142.21;100.00;112049.66;5002417;28;20206;-69
2022/10/29 08:33:37;;;;;;;8.33;4.17;;;19.00;81.40;;;-142.21;100.00;112049.66;5014716;28;20446;-69
2022/10/29 08:36:06;;;;;;;8.03;4.13;;;19.10;80.50;;;-142.21;100.00;112049.66;5001507;28;20204;-69
2022/10/29 08:38:33;;;;;;;7.80;4.27;;;19.30;80.50;;;-142.21;100.00;112049.66;4996883;28;20335;-69
2022/10/29 08:41:34;;;;;;;7.13;4.07;;;19.30;80.10;;;-142.21;100.00;112049.66;4997020;28;20959;-70
2022/10/29 08:44:39;;;;;;;6.07;3.93;;;19.50;80.10;;;-142.21;100.00;112049.66;5015025;28;20651;-69
2022/10/29 08:47:17;;;;;;;8.37;3.83;;;19.80;79.80;;;-142.21;100.00;112049.66;5004355;28;20199;-69
2022/10/29 08:49:55;;;;;;;10.67;3.70;;;20.00;79.50;;;-142.21;100.00;112049.66;4995153;28;20199;-71
2022/10/29 08:52:28;;;;;;;12.07;4.70;;;20.20;79.00;;;-142.21;100.00;112049.66;4995378;28;20211;-70
2022/10/29 08:55:07;;;;;;;7.23;4.17;;;20.40;78.30;;;-142.21;100.00;112049.66;4995128;28;20193;-69
2022/10/29 08:57:42;;;;;;;8.63;4.10;;;20.60;77.30;;;-142.21;100.00;112049.66;4995917;28;20198;-70
2022/10/29 09:00:18;;;;;;;7.00;4.23;;;20.80;76.70;;;-142.21;100.00;112049.66;5001292;28;20620;-70
2022/10/29 09:02:46;;;;;;;7.77;3.67;;;21.10;76.40;;;-142.21;98.57;112049.66;5003897;28;20219;-70
2022/10/29 09:05:19;;;;;;;8.33;3.60;;;21.20;74.50;;;-142.21;97.47;112049.66;5020535;28;20211;-69
2022/10/29 09:08:23;;;;;;;8.50;3.70;;;21.40;73.90;;;-142.21;95.64;112049.66;5026734;28;20191;-69
2022/10/29 09:10:55;;;;;;;9.87;3.87;;;21.60;72.90;;;-142.21;91.75;112049.66;5001939;28;20702;-69
2022/10/29 09:13:47;;;;;;;10.07;4.10;;;21.80;70.80;;;-142.21;89.58;112049.66;5019235;28;20198;-69
2022/10/29 09:16:41;;;;;;;9.67;4.20;;;22.00;68.90;;;-142.21;89.69;112049.66;5014808;28;20202;-70
2022/10/29 09:19:38;;;;;;;8.30;4.00;;;22.10;68.80;;;-142.21;89.42;112049.66;4999085;28;20222;-69
2022/10/29 09:22:21;;;;;;;8.47;3.50;;;22.20;67.80;;;-142.21;89.35;112049.66;4987478;28;20287;-70
2022/10/29 09:25:08;;;;;;;7.50;3.83;;;22.40;68.70;;;-142.21;88.29;112049.66;4994047;28;20189;-70
2022/10/29 09:27:56;;;;;;;11.27;4.70;;;22.50;68.20;;;-142.21;88.58;112049.66;4993893;28;20283;-70
2022/10/29 09:30:23;;;;;;;9.20;4.40;;;22.70;68.30;;;-142.21;87.92;112049.66;5005560;28;20200;-70
2022/10/29 09:32:59;;;;;;;12.40;4.40;;;22.90;68.10;;;-142.21;85.23;112049.66;5013350;28;20243;-70
2022/10/29 09:35:39;;;;;;;11.13;4.50;;;23.10;66.70;;;-142.21;86.27;112049.66;5014026;28;20242;-70
2022/10/29 09:38:18;;;;;;;8.57;4.50;;;23.30;66.40;;;-142.21;84.58;112049.66;5020272;28;20545;-70
2022/10/29 09:40:47;;;;;;;10.97;4.87;;;23.50;65.90;;;-142.21;81.49;112049.66;5033237;28;20198;-70
2022/10/29 09:43:28;;;;;;;9.03;5.10;;;23.60;64.30;;;-142.21;81.83;112049.66;5032153;28;20297;-70
2022/10/29 09:46:01;;;;;;;14.93;4.77;;;23.70;63.60;;;-142.21;79.07;112049.66;5022141;28;20253;-70
2022/10/29 09:48:37;;;;;;;9.23;4.53;;;23.80;62.90;;;-142.21;80.10;112049.66;5010610;28;20198;-70
2022/10/29 09:51:23;;;;;;;13.70;4.50;;;23.90;62.60;;;-142.21;80.43;112049.66;5011824;28;20281;-70
2022/10/29 09:53:51;;;;;;;9.07;5.13;;;24.10;62.70;;;-142.21;78.04;112049.66;5012843;28;20187;-71
2022/10/29 09:56:20;;;;;;;10.77;4.90;;;24.20;62.40;;;-142.21;78.72;112049.66;5011846;28;20658;-70
2022/10/29 09:58:54;;;;;;;7.90;4.53;;;24.30;62.30;;;-142.21;76.29;112049.66;5013323;28;20233;-70
2022/10/29 10:01:23;;;;;;;12.20;5.10;;;24.40;61.30;;;-142.21;75.22;112049.66;5012504;28;20626;-70
2022/10/29 10:04:05;;;;;;;6.57;4.40;;;24.60;61.00;;;-142.21;74.59;112049.66;5013248;28;20621;-70
2022/10/29 10:07:04;;;;;;;10.93;4.60;;;24.80;60.30;;;-142.21;74.90;112049.66;5013295;28;20257;-70
2022/10/29 10:09:55;;;;;;;10.73;5.10;;;24.90;59.60;;;-142.21;73.60;112049.66;4978836;28;20231;-70